Swanmore, United Kingdom
Current Conditions -  °F | °C
As of 10:20 PM on Sunday 25 Jan 2015 (Local Time) from EGHI Reporting Station
Broken Clouds Broken Clouds  
Wind Chill: 41°   Ceiling: 2700
Heat Index: 45°   Visibility: 6mi
Dew Point: 41°   Wind: 6mph
Humidity: 87%   Direction: 230°SW
Pressure: 30.33"   Gusts: NA
Location:  50.94°N, 1.18°W
Report Text: EGHI 252220Z 23005KT 9999 SCT011 BKN027 07/05 Q1027
Loading
Personal Weather Stations






























Interactive Weather Map New forecast layout! Learn more

10-Day Weather Forecast

Advertisements
Track Severe Weather on mobile